AAL2522 KCLE-KMEM
Flight info
| Callsign | AAL2522 |
|---|---|
| Flight time | N/A |
| Altitude | 38000 |
| Route | ZAAPA6 SINKR PXV BLUZZ5 |
| Aircraft | A320/M-SDE3FGHIRWY/LB1 |
Departure
| Time | 2026-05-05 01:33 |
|---|---|
| Airport | Cleveland Hopkins International Airport (KCLE) |
Arrival
| Time | N/A |
|---|---|
| Airport | Memphis International Airport (KMEM) |
| Time | Latitude | Longitude | Altitude | Speed | Heading |
|---|---|---|---|---|---|
| 2026-05-05 00:58 | 41.40888 | -81.84094 | 796 ft | 0 kts | 142° |
| 2026-05-05 00:58 | 41.40889 | -81.84094 | 796 ft | 0 kts | 142° |
| 2026-05-05 01:15 | 41.40916 | -81.84122 | 795 ft | 0 kts | 142° |
| 2026-05-05 01:15 | 41.40889 | -81.84094 | 795 ft | 0 kts | 142° |
| 2026-05-05 01:22 | 41.40896 | -81.84101 | 795 ft | 4 kts | 130° |
| 2026-05-05 01:22 | 41.40910 | -81.84119 | 795 ft | 4 kts | 137° |
| 2026-05-05 01:22 | 41.40923 | -81.84148 | 795 ft | 3 kts | 102° |
| 2026-05-05 01:23 | 41.40932 | -81.84181 | 795 ft | 3 kts | 113° |
| 2026-05-05 01:23 | 41.40941 | -81.84215 | 795 ft | 3 kts | 104° |
| 2026-05-05 01:23 | 41.40946 | -81.84250 | 795 ft | 4 kts | 92° |
| 2026-05-05 01:23 | 41.40943 | -81.84284 | 795 ft | 4 kts | 58° |
| 2026-05-05 01:24 | 41.40932 | -81.84299 | 795 ft | 1 kts | 360° |
| 2026-05-05 01:24 | 41.40933 | -81.84298 | 795 ft | 0 kts | 0° |
| 2026-05-05 01:26 | 41.40931 | -81.84298 | 795 ft | 0 kts | 3° |
| 2026-05-05 01:27 | 41.40930 | -81.84298 | 795 ft | 0 kts | 6° |
| 2026-05-05 01:27 | 41.40929 | -81.84298 | 795 ft | 0 kts | 8° |
| 2026-05-05 01:27 | 41.40927 | -81.84298 | 795 ft | 0 kts | 11° |
| 2026-05-05 01:27 | 41.40928 | -81.84298 | 795 ft | 0 kts | 10° |
| 2026-05-05 01:28 | 41.40926 | -81.84298 | 795 ft | 0 kts | 15° |
| 2026-05-05 01:28 | 41.40925 | -81.84298 | 797 ft | 0 kts | 18° |
| 2026-05-05 01:28 | 41.40933 | -81.84296 | 795 ft | 8 kts | 9° |
| 2026-05-05 01:29 | 41.40967 | -81.84304 | 795 ft | 2 kts | 343° |
| 2026-05-05 01:29 | 41.41026 | -81.84330 | 795 ft | 13 kts | 352° |
| 2026-05-05 01:29 | 41.41090 | -81.84308 | 795 ft | 9 kts | 0° |
| 2026-05-05 01:29 | 41.41151 | -81.84339 | 795 ft | 10 kts | 339° |
| 2026-05-05 01:30 | 41.41220 | -81.84318 | 795 ft | 11 kts | 39° |
| 2026-05-05 01:30 | 41.41273 | -81.84234 | 795 ft | 13 kts | 50° |
| 2026-05-05 01:30 | 41.41334 | -81.84140 | 795 ft | 14 kts | 40° |
| 2026-05-05 01:30 | 41.41409 | -81.84155 | 795 ft | 11 kts | 7° |
| 2026-05-05 01:31 | 41.41442 | -81.84146 | 795 ft | 1 kts | 6° |
| 2026-05-05 01:31 | 41.41446 | -81.84146 | 795 ft | 0 kts | 4° |
| 2026-05-05 01:31 | 41.41458 | -81.84148 | 795 ft | 3 kts | 346° |
| 2026-05-05 01:31 | 41.41501 | -81.84190 | 794 ft | 11 kts | 319° |
| 2026-05-05 01:32 | 41.41494 | -81.84267 | 794 ft | 8 kts | 231° |
| 2026-05-05 01:32 | 41.41413 | -81.84395 | 794 ft | 45 kts | 229° |
| 2026-05-05 01:32 | 41.41068 | -81.84936 | 796 ft | 105 kts | 229° |
| 2026-05-05 01:32 | 41.40488 | -81.85846 | 799 ft | 151 kts | 229° |
| 2026-05-05 01:33 | 41.39790 | -81.86951 | 1196 ft | 159 kts | 229° |
| 2026-05-05 01:33 | 41.39094 | -81.88173 | 1694 ft | 170 kts | 234° |
| 2026-05-05 01:33 | 41.38485 | -81.89549 | 2365 ft | 173 kts | 241° |
| 2026-05-05 01:33 | 41.37967 | -81.91025 | 2941 ft | 186 kts | 244° |
| 2026-05-05 01:34 | 41.37411 | -81.92699 | 3308 ft | 210 kts | 245° |
| 2026-05-05 01:34 | 41.36807 | -81.94561 | 3915 ft | 224 kts | 246° |
| 2026-05-05 01:34 | 41.36188 | -81.96484 | 4782 ft | 228 kts | 246° |
| 2026-05-05 01:34 | 41.35562 | -81.98445 | 5614 ft | 233 kts | 248° |
| 2026-05-05 01:35 | 41.34924 | -82.00441 | 5925 ft | 234 kts | 248° |
| 2026-05-05 01:35 | 41.34287 | -82.02433 | 6017 ft | 234 kts | 248° |
| 2026-05-05 01:35 | 41.33649 | -82.04424 | 6024 ft | 234 kts | 248° |
| 2026-05-05 01:35 | 41.33018 | -82.06394 | 6022 ft | 234 kts | 247° |
| 2026-05-05 01:36 | 41.32379 | -82.08384 | 6023 ft | 234 kts | 248° |
| 2026-05-05 01:36 | 41.31741 | -82.10368 | 6022 ft | 233 kts | 248° |
| 2026-05-05 01:36 | 41.31102 | -82.12356 | 6023 ft | 233 kts | 248° |
| 2026-05-05 01:36 | 41.30465 | -82.14340 | 6022 ft | 233 kts | 247° |
| 2026-05-05 01:37 | 41.29826 | -82.16326 | 6024 ft | 233 kts | 247° |
| 2026-05-05 01:37 | 41.29189 | -82.18302 | 6022 ft | 232 kts | 248° |
| 2026-05-05 01:37 | 41.28552 | -82.20272 | 6025 ft | 232 kts | 247° |
| 2026-05-05 01:37 | 41.27911 | -82.22246 | 6022 ft | 233 kts | 245° |
| 2026-05-05 01:38 | 41.27140 | -82.24173 | 6382 ft | 239 kts | 243° |
| 2026-05-05 01:38 | 41.26352 | -82.26104 | 7323 ft | 238 kts | 243° |
| 2026-05-05 01:38 | 41.25560 | -82.28047 | 8189 ft | 241 kts | 243° |
| 2026-05-05 01:38 | 41.24759 | -82.30019 | 9015 ft | 244 kts | 244° |
| 2026-05-05 01:39 | 41.23943 | -82.32017 | 9816 ft | 248 kts | 244° |
| 2026-05-05 01:39 | 41.23114 | -82.34047 | 10540 ft | 252 kts | 244° |
| 2026-05-05 01:39 | 41.22267 | -82.36118 | 11087 ft | 264 kts | 244° |
| 2026-05-05 01:39 | 41.21356 | -82.38356 | 11292 ft | 286 kts | 243° |
| 2026-05-05 01:40 | 41.20391 | -82.40745 | 11728 ft | 298 kts | 244° |
| 2026-05-05 01:40 | 41.19399 | -82.43182 | 12402 ft | 302 kts | 243° |
| 2026-05-05 01:40 | 41.18560 | -82.45718 | 13047 ft | 306 kts | 252° |
| 2026-05-05 01:40 | 41.17858 | -82.48405 | 13691 ft | 310 kts | 252° |
| 2026-05-05 01:41 | 41.17145 | -82.51137 | 13969 ft | 314 kts | 252° |
| 2026-05-05 01:41 | 41.16431 | -82.53873 | 14036 ft | 314 kts | 252° |
| 2026-05-05 01:41 | 41.15714 | -82.56616 | 14047 ft | 314 kts | 252° |
| 2026-05-05 01:41 | 41.14996 | -82.59359 | 14045 ft | 314 kts | 252° |
| 2026-05-05 01:42 | 41.14277 | -82.62097 | 14048 ft | 314 kts | 252° |
| 2026-05-05 01:42 | 41.13558 | -82.64832 | 14047 ft | 314 kts | 252° |
| 2026-05-05 01:42 | 41.12836 | -82.67570 | 14046 ft | 314 kts | 251° |
| 2026-05-05 01:42 | 41.12110 | -82.70322 | 14344 ft | 318 kts | 251° |
| 2026-05-05 01:43 | 41.11377 | -82.73098 | 15007 ft | 320 kts | 251° |
| 2026-05-05 01:43 | 41.10650 | -82.75861 | 15591 ft | 323 kts | 253° |
| 2026-05-05 01:43 | 41.10094 | -82.78756 | 16167 ft | 326 kts | 257° |
| 2026-05-05 01:43 | 41.09581 | -82.81708 | 16756 ft | 330 kts | 257° |
| 2026-05-05 01:44 | 41.09063 | -82.84690 | 17348 ft | 334 kts | 257° |
| 2026-05-05 01:44 | 41.08538 | -82.87701 | 17953 ft | 337 kts | 257° |
| 2026-05-05 01:44 | 41.08004 | -82.90738 | 18489 ft | 340 kts | 257° |
| 2026-05-05 01:44 | 41.07463 | -82.93810 | 19033 ft | 343 kts | 257° |
| 2026-05-05 01:45 | 41.06919 | -82.96899 | 19587 ft | 346 kts | 257° |
| 2026-05-05 01:45 | 41.06369 | -83.00027 | 20145 ft | 349 kts | 257° |
| 2026-05-05 01:45 | 41.05813 | -83.03181 | 20683 ft | 352 kts | 257° |
| 2026-05-05 01:45 | 41.05251 | -83.06353 | 21208 ft | 355 kts | 257° |
| 2026-05-05 01:46 | 41.04682 | -83.09555 | 21719 ft | 359 kts | 257° |
| 2026-05-05 01:46 | 41.04105 | -83.12790 | 22239 ft | 362 kts | 257° |
| 2026-05-05 01:46 | 41.03523 | -83.16044 | 22763 ft | 365 kts | 257° |
| 2026-05-05 01:46 | 41.02935 | -83.19333 | 23284 ft | 368 kts | 257° |
| 2026-05-05 01:47 | 41.02342 | -83.22641 | 23720 ft | 371 kts | 257° |
| 2026-05-05 01:47 | 41.01746 | -83.25976 | 24156 ft | 373 kts | 257° |
| 2026-05-05 01:47 | 41.01146 | -83.29336 | 24577 ft | 376 kts | 257° |
| 2026-05-05 01:47 | 41.00543 | -83.32704 | 25002 ft | 378 kts | 257° |
| 2026-05-05 01:48 | 40.99934 | -83.36101 | 25418 ft | 380 kts | 257° |
| 2026-05-05 01:48 | 40.99319 | -83.39505 | 25826 ft | 382 kts | 257° |
| 2026-05-05 01:48 | 40.98697 | -83.42935 | 26230 ft | 384 kts | 257° |
| 2026-05-05 01:48 | 40.98073 | -83.46373 | 26632 ft | 386 kts | 257° |
| 2026-05-05 01:49 | 40.97444 | -83.49832 | 27023 ft | 388 kts | 257° |
| 2026-05-05 01:49 | 40.96810 | -83.53316 | 27403 ft | 390 kts | 257° |
| 2026-05-05 01:49 | 40.96172 | -83.56810 | 27791 ft | 392 kts | 257° |
| 2026-05-05 01:49 | 40.95538 | -83.60280 | 28164 ft | 394 kts | 257° |
| 2026-05-05 01:50 | 40.94885 | -83.63856 | 28546 ft | 396 kts | 257° |
| 2026-05-05 01:50 | 40.94244 | -83.67361 | 28913 ft | 398 kts | 257° |
| 2026-05-05 01:50 | 40.93590 | -83.70929 | 29278 ft | 400 kts | 257° |
| 2026-05-05 01:50 | 40.92930 | -83.74520 | 29646 ft | 403 kts | 257° |
| 2026-05-05 01:51 | 40.92265 | -83.78124 | 29966 ft | 405 kts | 257° |
| 2026-05-05 01:51 | 40.91593 | -83.81754 | 30274 ft | 407 kts | 257° |
| 2026-05-05 01:51 | 40.90913 | -83.85392 | 30583 ft | 409 kts | 255° |
| 2026-05-05 01:51 | 40.89919 | -83.88930 | 30873 ft | 413 kts | 245° |
| 2026-05-05 01:52 | 40.88438 | -83.92185 | 31239 ft | 415 kts | 235° |
| 2026-05-05 01:52 | 40.86527 | -83.95050 | 31647 ft | 417 kts | 226° |
| 2026-05-05 01:52 | 40.84299 | -83.97500 | 32051 ft | 419 kts | 221° |
| 2026-05-05 01:52 | 40.82021 | -83.99893 | 32458 ft | 418 kts | 221° |
| 2026-05-05 01:53 | 40.79747 | -84.02280 | 32866 ft | 417 kts | 222° |
| 2026-05-05 01:53 | 40.77479 | -84.04666 | 33271 ft | 417 kts | 222° |
| 2026-05-05 01:53 | 40.75979 | -84.06247 | 33549 ft | 416 kts | 222° |
| 2026-05-05 01:53 | 40.73718 | -84.08631 | 33932 ft | 416 kts | 222° |
| 2026-05-05 01:54 | 40.71461 | -84.11008 | 34273 ft | 415 kts | 222° |
| 2026-05-05 01:54 | 40.69207 | -84.13377 | 34601 ft | 415 kts | 222° |
| 2026-05-05 01:54 | 40.66950 | -84.15742 | 34925 ft | 414 kts | 222° |
| 2026-05-05 01:54 | 40.64693 | -84.18105 | 35247 ft | 414 kts | 222° |
| 2026-05-05 01:55 | 40.62446 | -84.20459 | 35572 ft | 413 kts | 222° |
| 2026-05-05 01:55 | 40.60201 | -84.22809 | 35880 ft | 412 kts | 222° |
| 2026-05-05 01:55 | 40.57957 | -84.25152 | 36185 ft | 412 kts | 222° |
| 2026-05-05 01:55 | 40.55712 | -84.27492 | 36480 ft | 411 kts | 222° |
| 2026-05-05 01:56 | 40.53476 | -84.29820 | 36766 ft | 410 kts | 222° |
| 2026-05-05 01:56 | 40.51238 | -84.32152 | 37046 ft | 410 kts | 222° |
| 2026-05-05 01:56 | 40.49008 | -84.34470 | 37318 ft | 409 kts | 222° |
| 2026-05-05 01:56 | 40.46776 | -84.36791 | 37584 ft | 408 kts | 222° |
| 2026-05-05 01:57 | 40.44711 | -84.39111 | 37736 ft | 406 kts | 229° |
| 2026-05-05 01:57 | 40.42783 | -84.41815 | 37754 ft | 405 kts | 231° |
| 2026-05-05 01:57 | 40.38954 | -84.47251 | 37759 ft | 406 kts | 230° |
| 2026-05-05 01:58 | 40.35112 | -84.52674 | 37752 ft | 405 kts | 230° |
| 2026-05-05 01:58 | 40.31267 | -84.58084 | 37762 ft | 406 kts | 230° |
| 2026-05-05 01:59 | 40.27416 | -84.63501 | 37762 ft | 406 kts | 230° |
| 2026-05-05 01:59 | 40.23558 | -84.68915 | 37767 ft | 407 kts | 230° |
| 2026-05-05 02:00 | 40.19715 | -84.74290 | 37762 ft | 407 kts | 230° |
| 2026-05-05 02:00 | 40.15839 | -84.79701 | 37756 ft | 408 kts | 230° |
| 2026-05-05 02:01 | 40.11961 | -84.85108 | 37758 ft | 408 kts | 230° |
| 2026-05-05 02:01 | 40.08083 | -84.90514 | 37752 ft | 408 kts | 230° |
| 2026-05-05 02:02 | 40.04207 | -84.95903 | 37759 ft | 409 kts | 230° |
| 2026-05-05 02:02 | 40.00318 | -85.01309 | 37758 ft | 409 kts | 230° |
| 2026-05-05 02:03 | 39.96420 | -85.06705 | 37762 ft | 409 kts | 230° |
| 2026-05-05 02:03 | 39.92518 | -85.12097 | 37762 ft | 409 kts | 230° |
| 2026-05-05 02:04 | 39.88609 | -85.17480 | 37769 ft | 409 kts | 230° |
| 2026-05-05 02:04 | 39.84700 | -85.22874 | 37767 ft | 410 kts | 230° |
| 2026-05-05 02:05 | 39.80781 | -85.28273 | 37775 ft | 410 kts | 230° |
| 2026-05-05 02:05 | 39.76904 | -85.33592 | 37782 ft | 411 kts | 230° |
| 2026-05-05 02:06 | 39.73000 | -85.38942 | 37783 ft | 411 kts | 230° |
| 2026-05-05 02:06 | 39.69070 | -85.44327 | 37780 ft | 411 kts | 230° |
| 2026-05-05 02:07 | 39.65209 | -85.49604 | 37781 ft | 410 kts | 230° |
| 2026-05-05 02:07 | 39.61274 | -85.54967 | 37789 ft | 410 kts | 230° |
| 2026-05-05 02:08 | 39.57342 | -85.60315 | 37790 ft | 409 kts | 230° |
| 2026-05-05 02:08 | 39.53410 | -85.65651 | 37790 ft | 409 kts | 230° |
| 2026-05-05 02:09 | 39.49481 | -85.70972 | 37793 ft | 408 kts | 230° |
| 2026-05-05 02:09 | 39.45563 | -85.76287 | 37792 ft | 408 kts | 230° |
| 2026-05-05 02:10 | 39.41684 | -85.81547 | 37782 ft | 407 kts | 230° |
| 2026-05-05 02:10 | 39.37763 | -85.86836 | 37787 ft | 407 kts | 230° |
| 2026-05-05 02:11 | 39.33836 | -85.92118 | 37789 ft | 408 kts | 230° |
| 2026-05-05 02:11 | 39.29926 | -85.97370 | 37785 ft | 408 kts | 230° |
| 2026-05-05 02:12 | 39.24028 | -86.05288 | 37786 ft | 408 kts | 230° |
| 2026-05-05 02:13 | 39.20099 | -86.10563 | 37788 ft | 408 kts | 230° |
| 2026-05-05 02:13 | 39.16152 | -86.15824 | 37782 ft | 408 kts | 230° |
| 2026-05-05 02:14 | 39.12203 | -86.21083 | 37780 ft | 408 kts | 230° |
| 2026-05-05 02:14 | 39.08250 | -86.26332 | 37785 ft | 408 kts | 230° |
| 2026-05-05 02:15 | 39.04318 | -86.31572 | 37798 ft | 408 kts | 231° |
| 2026-05-05 02:15 | 39.00363 | -86.36822 | 37808 ft | 409 kts | 230° |
| 2026-05-05 02:16 | 38.96492 | -86.41959 | 37813 ft | 408 kts | 231° |
| 2026-05-05 02:16 | 38.92535 | -86.47195 | 37820 ft | 408 kts | 231° |
| 2026-05-05 02:17 | 38.88578 | -86.52420 | 37816 ft | 408 kts | 231° |
| 2026-05-05 02:17 | 38.84619 | -86.57640 | 37812 ft | 408 kts | 231° |
| 2026-05-05 02:18 | 38.80682 | -86.62816 | 37806 ft | 408 kts | 231° |
| 2026-05-05 02:18 | 38.76724 | -86.68026 | 37800 ft | 408 kts | 231° |
| 2026-05-05 02:19 | 38.72785 | -86.73208 | 37812 ft | 408 kts | 231° |
| 2026-05-05 02:19 | 38.68814 | -86.78399 | 37819 ft | 408 kts | 231° |
| 2026-05-05 02:20 | 38.64837 | -86.83579 | 37819 ft | 408 kts | 231° |
| 2026-05-05 02:20 | 38.60865 | -86.88761 | 37800 ft | 408 kts | 231° |
| 2026-05-05 02:21 | 38.56896 | -86.93937 | 37802 ft | 407 kts | 232° |
| 2026-05-05 02:21 | 38.52926 | -86.99105 | 37803 ft | 407 kts | 232° |
| 2026-05-05 02:22 | 38.48951 | -87.04260 | 37802 ft | 407 kts | 232° |
| 2026-05-05 02:22 | 38.44981 | -87.09400 | 37815 ft | 407 kts | 232° |
| 2026-05-05 02:23 | 38.41030 | -87.14508 | 37813 ft | 407 kts | 232° |
| 2026-05-05 02:23 | 38.37050 | -87.19646 | 37808 ft | 407 kts | 232° |
| 2026-05-05 02:24 | 38.33073 | -87.24786 | 37811 ft | 408 kts | 232° |
| 2026-05-05 02:24 | 38.29276 | -87.29689 | 37803 ft | 408 kts | 232° |
| 2026-05-05 02:25 | 38.25122 | -87.34652 | 37798 ft | 413 kts | 227° |
| 2026-05-05 02:25 | 38.20700 | -87.38622 | 37693 ft | 425 kts | 217° |